Terminal Aerodrome Forecast
Issued by NWS

Home | Current Version | Previous Version | Text Only | Print | Product List | Glossary On
Versions: 1 2 3 4 5 6 7 8 9 10 11 12 13 14 15 16 17 18
000
FTUS42 KRAH 181140
TAFINT
TAF
KINT 181140Z 1812/1912 04008KT P6SM BKN200
      TEMPO 1812/1813 BKN009 OVC200
     FM190700 04009KT 6SM -RA SCT025 BKN035 OVC070=

USA.gov is the U.S. government's official web portal to all federal, state and local government web resources and services.